Time;durP1;ratioP1;P1;durP2;ratioP2;P2;SDS_P1;SDS_P2;PMS_P1;PMS_P2;Temp;Humidity;BMP_temperature;BMP_pressure;BME280_temperature;BME280_humidity;BME280_pressure;Samples;Min_cycle;Max_cycle;Signal;HPM_P1;HPM_P2
2022/11/17 00:00:16;;;;;;;7.10;2.80;;;10.10;99.90;;;;;;5075924;28;20389;-75
2022/11/17 00:02:41;;;;;;;7.35;2.75;;;10.20;99.90;;;;;;5074729;28;20052;-75
2022/11/17 00:05:07;;;;;;;4.88;2.50;;;10.20;99.90;;;;;;5073821;28;20067;-75
2022/11/17 00:07:33;;;;;;;10.52;3.38;;;10.20;99.90;;;;;;5073951;28;20025;-76
2022/11/17 00:09:58;;;;;;;6.82;2.55;;;10.20;99.90;;;;;;5074893;28;20028;-75
2022/11/17 00:15:08;;;;;;;8.20;2.85;;;10.10;99.90;;;;;;5074823;28;20506;-76
2022/11/17 00:17:33;;;;;;;9.80;4.00;;;10.10;99.90;;;;;;5073913;28;20024;-76
2022/11/17 00:22:43;;;;;;;6.20;3.30;;;10.20;99.90;;;;;;5074376;28;20048;-75
2022/11/17 00:25:09;;;;;;;6.85;4.32;;;10.20;99.90;;;;;;5073954;28;20384;-75
2022/11/17 00:27:36;;;;;;;5.55;4.05;;;10.20;99.90;;;;;;5074114;28;20032;-75
2022/11/17 00:30:02;;;;;;;5.53;4.00;;;10.20;99.90;;;;;;5074719;28;20036;-75
2022/11/17 00:35:11;;;;;;;5.75;4.43;;;10.20;99.90;;;;;;5073709;28;20117;-75
2022/11/17 00:40:23;;;;;;;6.40;4.00;;;10.20;99.90;;;;;;5073949;28;20042;-76
2022/11/17 00:42:48;;;;;;;7.15;4.18;;;10.20;99.90;;;;;;5073776;28;20036;-75
2022/11/17 00:45:14;;;;;;;10.60;5.25;;;10.20;99.90;;;;;;5074472;28;20020;-75
2022/11/17 00:47:41;;;;;;;6.63;3.92;;;10.20;99.90;;;;;;5073865;28;20069;-75
2022/11/17 00:50:07;;;;;;;4.65;4.25;;;10.20;99.90;;;;;;5074550;28;20029;-74
2022/11/17 00:52:32;;;;;;;9.95;4.43;;;10.20;99.90;;;;;;5073241;28;20502;-75
2022/11/17 00:54:58;;;;;;;10.07;5.65;;;10.20;99.90;;;;;;5073597;28;20488;-75
2022/11/17 00:57:23;;;;;;;5.57;5.07;;;10.30;99.90;;;;;;5073897;28;20530;-75
2022/11/17 00:59:49;;;;;;;9.90;5.25;;;10.30;99.90;;;;;;5073481;28;20402;-75
2022/11/17 01:02:14;;;;;;;8.02;5.45;;;10.30;99.90;;;;;;5073823;28;20020;-75
2022/11/17 01:04:40;;;;;;;5.07;4.57;;;10.30;99.90;;;;;;5073654;28;20024;-77
2022/11/17 01:07:05;;;;;;;5.40;4.88;;;10.30;99.90;;;;;;5073545;28;20031;-75
2022/11/17 01:09:31;;;;;;;10.52;5.47;;;10.30;99.90;;;;;;5073570;28;20029;-75
2022/11/17 01:11:56;;;;;;;9.15;5.40;;;10.30;99.90;;;;;;5074125;28;20025;-76
2022/11/17 01:14:27;;;;;;;4.68;4.18;;;10.40;99.90;;;;;;5073018;28;20438;-75
2022/11/17 01:16:53;;;;;;;7.45;4.70;;;10.40;99.90;;;;;;5073961;28;20104;-76
2022/11/17 01:19:20;;;;;;;6.88;4.93;;;10.40;99.90;;;;;;5074144;28;20056;-76
2022/11/17 01:21:46;;;;;;;6.10;4.28;;;10.40;99.90;;;;;;5073429;28;20111;-75
2022/11/17 01:24:14;;;;;;;8.60;5.32;;;10.40;99.90;;;;;;5073717;28;20120;-75
2022/11/17 01:26:41;;;;;;;5.00;4.30;;;10.40;99.90;;;;;;5059641;28;20100;-75
2022/11/17 01:29:09;;;;;;;4.18;3.83;;;10.40;99.90;;;;;;5073367;28;20104;-76
2022/11/17 01:31:38;;;;;;;4.35;3.33;;;10.40;99.90;;;;;;5072543;28;20021;-77
2022/11/17 01:34:04;;;;;;;3.78;3.40;;;10.40;99.90;;;;;;5072298;28;20089;-77
2022/11/17 01:37:17;;;;;;;5.47;3.85;;;10.50;99.90;;;;;;5073143;28;20067;-77
2022/11/17 01:39:22;;;;;;;9.95;3.30;;;10.40;99.90;;;;;;5060915;28;20040;-76
2022/11/17 01:41:48;;;;;;;8.52;3.30;;;10.50;99.90;;;;;;5072998;28;20028;-75
2022/11/17 01:44:35;;;;;;;4.40;3.08;;;10.50;99.90;;;;;;5071828;28;20036;-76
2022/11/17 01:47:02;;;;;;;5.57;3.30;;;10.60;99.90;;;;;;5058910;28;20025;-76
2022/11/17 01:49:28;;;;;;;5.30;3.60;;;10.60;99.90;;;;;;5071844;28;20103;-76
2022/11/17 01:52:01;;;;;;;3.15;2.30;;;10.50;99.90;;;;;;5074596;28;20119;-76
2022/11/17 01:54:28;;;;;;;3.97;2.50;;;10.50;99.90;;;;;;5074143;28;20024;-75
2022/11/17 01:57:01;;;;;;;6.22;3.45;;;10.50;99.90;;;;;;5072348;28;20021;-76
2022/11/17 01:59:33;;;;;;;4.05;2.60;;;10.60;99.90;;;;;;5072736;28;20020;-75
2022/11/17 02:01:59;;;;;;;4.65;2.60;;;10.60;99.90;;;;;;5072807;28;20028;-75
2022/11/17 02:04:49;;;;;;;5.45;2.75;;;10.50;99.90;;;;;;5074084;28;20034;-76
2022/11/17 02:07:25;;;;;;;4.10;2.40;;;10.60;99.90;;;;;;5073327;28;20029;-75
2022/11/17 02:09:54;;;;;;;8.25;2.63;;;10.50;99.90;;;;;;5074568;28;20032;-76
2022/11/17 02:12:24;;;;;;;5.87;2.70;;;10.50;99.90;;;;;;5072663;28;20028;-76
2022/11/17 02:14:50;;;;;;;3.28;2.15;;;10.50;99.90;;;;;;5073276;28;20029;-76
2022/11/17 02:17:16;;;;;;;5.10;2.60;;;10.50;99.90;;;;;;5073484;28;20403;-76
2022/11/17 02:19:44;;;;;;;3.53;2.35;;;10.50;99.90;;;;;;5073447;28;20020;-75
2022/11/17 02:22:36;;;;;;;3.28;2.10;;;10.50;99.90;;;;;;5072935;28;20028;-74
2022/11/17 02:25:20;;;;;;;6.57;1.88;;;10.50;99.90;;;;;;5066320;28;20037;-75
2022/11/17 02:28:01;;;;;;;6.45;2.13;;;10.60;99.90;;;;;;5063495;28;20021;-76
2022/11/17 02:30:50;;;;;;;4.00;1.58;;;10.60;99.90;;;;;;5072940;28;20495;-75
2022/11/17 02:33:30;;;;;;;3.30;1.80;;;10.60;99.90;;;;;;5072214;28;20044;-75
2022/11/17 02:36:08;;;;;;;3.90;1.90;;;10.60;99.90;;;;;;5059677;28;20056;-76
2022/11/17 02:38:47;;;;;;;6.30;1.60;;;10.60;99.90;;;;;;5072056;28;20166;-76
2022/11/17 02:41:21;;;;;;;4.53;2.22;;;10.60;99.90;;;;;;5072871;28;20040;-76
2022/11/17 02:44:05;;;;;;;4.68;1.58;;;10.60;99.90;;;;;;5072236;28;20032;-76
2022/11/17 02:46:45;;;;;;;8.63;1.75;;;10.60;99.90;;;;;;5071974;28;20020;-75
2022/11/17 02:49:19;;;;;;;4.30;1.50;;;10.60;99.90;;;;;;5072968;28;20017;-76
2022/11/17 02:51:49;;;;;;;3.35;1.60;;;10.60;99.90;;;;;;5072614;28;20430;-76
2022/11/17 02:54:16;;;;;;;4.57;1.97;;;10.60;99.90;;;;;;5071289;28;20037;-77
2022/11/17 02:56:42;;;;;;;5.85;1.80;;;10.50;99.90;;;;;;5072073;28;20025;-76
2022/11/17 02:59:11;;;;;;;4.63;1.80;;;10.60;99.90;;;;;;5073900;28;20021;-75
2022/11/17 03:01:54;;;;;;;2.42;1.50;;;10.50;99.90;;;;;;5072358;28;20029;-77
2022/11/17 03:04:56;;;;;;;3.88;1.67;;;10.40;99.90;;;;;;5073385;28;20037;-77
2022/11/17 03:07:49;;;;;;;3.10;1.50;;;10.40;99.90;;;;;;5073487;28;20100;-76
2022/11/17 03:10:50;;;;;;;3.22;1.55;;;10.40;99.90;;;;;;5063317;28;20028;-76
2022/11/17 03:13:25;;;;;;;5.07;1.40;;;10.50;99.90;;;;;;5065882;28;20025;-76
2022/11/17 03:16:06;;;;;;;3.65;1.50;;;10.50;99.90;;;;;;5068667;28;20029;-76
2022/11/17 03:18:47;;;;;;;4.32;1.52;;;10.50;99.90;;;;;;5063268;28;20128;-77
2022/11/17 03:21:25;;;;;;;5.00;1.88;;;10.50;99.90;;;;;;5074396;28;20365;-76
2022/11/17 03:24:02;;;;;;;4.55;1.33;;;10.50;99.90;;;;;;5075500;28;20761;-76
2022/11/17 03:26:38;;;;;;;3.72;1.45;;;10.50;99.90;;;;;;5061998;28;20021;-76
2022/11/17 03:29:09;;;;;;;3.10;1.40;;;10.50;99.90;;;;;;5061673;28;20545;-76
2022/11/17 03:31:36;;;;;;;5.40;1.70;;;10.50;99.90;;;;;;5075480;28;20028;-76
2022/11/17 03:34:07;;;;;;;6.18;1.60;;;10.50;99.90;;;;;;5075668;28;20032;-75
2022/11/17 03:36:36;;;;;;;3.25;1.40;;;10.40;99.90;;;;;;5074860;28;20035;-75
2022/11/17 03:39:16;;;;;;;3.33;1.17;;;10.50;99.90;;;;;;5075523;28;20020;-76
2022/11/17 03:41:46;;;;;;;8.23;1.42;;;10.50;99.90;;;;;;5076061;28;20027;-75
2022/11/17 03:44:13;;;;;;;4.55;1.17;;;10.50;99.90;;;;;;5076037;28;20487;-77
2022/11/17 03:46:42;;;;;;;5.05;1.42;;;10.60;99.90;;;;;;5069732;28;20028;-75
2022/11/17 03:49:32;;;;;;;7.47;1.67;;;10.70;99.90;;;;;;5066479;28;20025;-76
2022/11/17 03:51:58;;;;;;;3.10;1.50;;;10.70;99.90;;;;;;5080152;28;20029;-75
2022/11/17 03:54:24;;;;;;;6.40;1.20;;;10.70;99.90;;;;;;5089332;28;20103;-75
2022/11/17 03:57:20;;;;;;;6.22;1.10;;;10.70;99.90;;;;;;5081463;28;20051;-76
2022/11/17 03:59:57;;;;;;;3.70;1.20;;;10.70;99.90;;;;;;5079616;28;20381;-76
2022/11/17 04:02:24;;;;;;;5.10;1.10;;;10.80;99.90;;;;;;5075358;28;20059;-77
2022/11/17 04:05:05;;;;;;;3.10;0.80;;;10.80;99.90;;;;;;5061336;28;20041;-75
2022/11/17 04:07:32;;;;;;;1.42;0.68;;;10.80;99.90;;;;;;5085537;28;20060;-76
2022/11/17 04:09:57;;;;;;;1.27;0.80;;;10.90;99.90;;;;;;5074215;28;20088;-76
2022/11/17 04:17:54;;;;;;;2.83;1.00;;;10.90;99.90;;;;;;5074528;28;20092;-75
2022/11/17 04:20:20;;;;;;;1.30;0.98;;;10.80;99.90;;;;;;5075002;28;20021;-75
2022/11/17 04:23:05;;;;;;;2.25;0.88;;;10.80;99.90;;;;;;5082541;28;20463;-76
2022/11/17 04:31:00;;;;;;;1.58;1.15;;;10.80;99.90;;;;;;5074810;28;20493;-75
2022/11/17 04:33:26;;;;;;;1.10;0.90;;;10.80;99.90;;;;;;5074564;28;20024;-76
2022/11/17 04:35:51;;;;;;;1.80;1.02;;;10.90;99.90;;;;;;5074376;28;20047;-73
2022/11/17 04:38:17;;;;;;;4.60;1.45;;;10.80;99.90;;;;;;5073533;28;20028;-74
2022/11/17 04:41:52;;;;;;;1.42;0.80;;;10.80;99.90;;;;;;5073499;28;20051;-74
2022/11/17 04:43:28;;;;;;;2.45;1.20;;;10.80;99.90;;;;;;5073050;28;20044;-74
2022/11/17 04:45:58;;;;;;;1.80;0.98;;;10.80;99.90;;;;;;5072942;28;20059;-73
2022/11/17 04:48:23;;;;;;;3.53;0.73;;;10.80;99.90;;;;;;5074181;28;20025;-73
2022/11/17 04:50:52;;;;;;;1.98;1.00;;;10.70;99.90;;;;;;5074038;28;20025;-73
2022/11/17 04:53:18;;;;;;;4.40;1.00;;;10.80;99.90;;;;;;5073746;28;20128;-74
2022/11/17 04:55:43;;;;;;;4.72;0.77;;;10.80;99.90;;;;;;5060225;28;20086;-73
2022/11/17 04:58:09;;;;;;;2.70;0.90;;;10.80;99.90;;;;;;5072524;28;20025;-74
2022/11/17 05:00:34;;;;;;;1.90;0.77;;;10.80;99.90;;;;;;5072349;28;20020;-73
2022/11/17 05:03:00;;;;;;;2.30;0.60;;;10.80;99.90;;;;;;5073401;28;20050;-74
2022/11/17 05:05:25;;;;;;;3.03;1.25;;;10.80;99.90;;;;;;5073229;28;20383;-74
2022/11/17 05:07:51;;;;;;;0.80;0.50;;;10.80;99.90;;;;;;5072730;28;20544;-73
2022/11/17 05:13:20;;;;;;;7.53;0.77;;;10.70;99.90;;;;;;5073588;28;20039;-73
2022/11/17 05:13:20;;;;;;;2.22;0.75;;;10.70;99.90;;;;;;5072594;28;20112;-74
2022/11/17 05:18:30;;;;;;;2.15;0.82;;;10.70;99.90;;;;;;5072980;28;20047;-74
2022/11/17 05:21:07;;;;;;;3.40;0.80;;;10.60;99.90;;;;;;5072469;28;20464;-72
2022/11/17 05:23:54;;;;;;;3.40;0.80;;;10.60;99.90;;;;;;5072587;28;20033;-74
2022/11/17 05:26:22;;;;;;;4.22;0.80;;;10.70;99.90;;;;;;5072870;28;20031;-74
2022/11/17 05:28:51;;;;;;;1.85;0.60;;;10.70;99.90;;;;;;5072118;28;20036;-73
2022/11/17 05:31:17;;;;;;;3.55;1.05;;;10.70;99.90;;;;;;5073035;28;20452;-74
2022/11/17 05:33:43;;;;;;;3.83;1.00;;;10.70;99.90;;;;;;5072952;28;20043;-73
2022/11/17 05:36:09;;;;;;;1.77;0.80;;;11.70;99.90;;;;;;5073220;28;20052;-73
2022/11/17 05:38:34;;;;;;;3.08;1.00;;;10.70;99.90;;;;;;5072219;28;20028;-73
2022/11/17 05:41:00;;;;;;;2.70;1.30;;;10.70;99.90;;;;;;5072871;28;20051;-72
2022/11/17 05:43:26;;;;;;;4.38;1.00;;;10.70;99.90;;;;;;5072436;28;20033;-74
2022/11/17 05:45:52;;;;;;;3.70;0.82;;;10.70;99.90;;;;;;5072717;28;20063;-74
2022/11/17 05:48:18;;;;;;;9.20;0.90;;;10.70;99.90;;;;;;5072135;28;20035;-74
2022/11/17 05:50:43;;;;;;;3.65;1.00;;;10.60;99.90;;;;;;5072323;28;20028;-75
2022/11/17 05:53:09;;;;;;;2.17;0.90;;;10.70;99.90;;;;;;5072704;28;20056;-74
2022/11/17 05:55:35;;;;;;;2.47;1.05;;;10.70;99.90;;;;;;5060210;28;20070;-74
2022/11/17 05:58:10;;;;;;;2.40;1.00;;;10.80;99.90;;;;;;5070425;28;20047;-74
2022/11/17 06:00:37;;;;;;;7.55;1.40;;;10.70;99.90;;;;;;5072723;28;20082;-74
2022/11/17 06:03:11;;;;;;;3.95;0.90;;;10.70;99.90;;;;;;5071624;28;20464;-74
2022/11/17 06:05:37;;;;;;;2.83;1.05;;;10.80;99.90;;;;;;5072094;28;20021;-73
2022/11/17 06:08:02;;;;;;;3.95;1.10;;;10.80;99.90;;;;;;5072250;28;20020;-73
2022/11/17 06:10:28;;;;;;;2.63;1.45;;;10.80;99.90;;;;;;5071984;28;20020;-74
2022/11/17 06:12:53;;;;;;;4.82;1.30;;;10.70;99.90;;;;;;5072493;28;20037;-74
2022/11/17 06:15:19;;;;;;;3.72;1.25;;;10.80;99.90;;;;;;5072653;28;20029;-73
2022/11/17 06:17:55;;;;;;;6.70;1.58;;;10.80;99.90;;;;;;5071576;28;20074;-74
2022/11/17 06:20:31;;;;;;;5.88;1.33;;;10.80;99.90;;;;;;5064053;28;20020;-74
2022/11/17 06:23:02;;;;;;;3.15;1.58;;;10.90;99.90;;;;;;5053843;28;20029;-74
2022/11/17 06:25:28;;;;;;;4.20;1.40;;;10.90;99.90;;;;;;5056178;28;20119;-74
2022/11/17 06:27:54;;;;;;;4.47;1.17;;;11.00;99.90;;;;;;5052542;28;20538;-74
2022/11/17 06:30:20;;;;;;;5.25;1.45;;;10.90;99.90;;;;;;5055215;28;20060;-74
2022/11/17 06:32:48;;;;;;;3.42;1.50;;;10.90;99.90;;;;;;5050949;28;20041;-74
2022/11/17 06:35:17;;;;;;;4.78;1.58;;;11.00;99.90;;;;;;5058250;28;20573;-74
2022/11/17 06:37:43;;;;;;;4.22;1.40;;;10.90;99.90;;;;;;5055143;28;20032;-73
2022/11/17 06:40:09;;;;;;;5.85;1.58;;;10.90;99.90;;;;;;5053129;28;20021;-73
2022/11/17 06:45:21;;;;;;;3.15;1.00;;;10.90;99.90;;;;;;5050983;28;20453;-74
2022/11/17 06:47:47;;;;;;;5.80;1.10;;;10.90;99.90;;;;;;5055210;28;20107;-74
2022/11/17 06:50:12;;;;;;;4.50;1.15;;;10.90;99.90;;;;;;5058662;28;20013;-74
2022/11/17 06:52:38;;;;;;;7.00;1.60;;;10.90;99.90;;;;;;5057511;28;20044;-75
2022/11/17 06:55:04;;;;;;;2.28;0.70;;;10.90;99.90;;;;;;5059240;28;20033;-74
2022/11/17 06:57:29;;;;;;;2.70;0.82;;;10.90;99.90;;;;;;5056372;28;20021;-74
2022/11/17 06:59:55;;;;;;;2.47;1.10;;;10.80;99.90;;;;;;5064648;28;20025;-74
2022/11/17 07:02:20;;;;;;;3.55;1.10;;;10.80;99.90;;;;;;5058292;28;20059;-74
2022/11/17 07:04:46;;;;;;;4.00;0.80;;;10.80;99.90;;;;;;5054806;28;20461;-74
2022/11/17 07:07:12;;;;;;;2.83;0.90;;;10.70;99.90;;;;;;5057267;28;20055;-74
2022/11/17 07:09:37;;;;;;;4.00;0.93;;;10.80;99.90;;;;;;5058790;28;20032;-73
2022/11/17 07:12:03;;;;;;;3.90;0.93;;;10.70;99.90;;;;;;5059908;28;20017;-75
2022/11/17 07:14:30;;;;;;;3.67;0.82;;;10.80;99.90;;;;;;5055096;28;20481;-74
2022/11/17 07:16:55;;;;;;;1.55;0.65;;;10.80;99.90;;;;;;5059756;28;20365;-74
2022/11/17 07:19:21;;;;;;;5.00;1.08;;;10.70;99.90;;;;;;5055906;28;20100;-74
2022/11/17 07:21:46;;;;;;;3.28;0.80;;;10.70;99.90;;;;;;5056701;28;20019;-75
2022/11/17 07:24:12;;;;;;;0.98;0.60;;;10.70;99.90;;;;;;5057726;28;20033;-74
2022/11/17 07:26:37;;;;;;;5.93;0.77;;;10.70;99.90;;;;;;5063156;28;20087;-75
2022/11/17 07:29:03;;;;;;;2.92;0.80;;;10.70;99.90;;;;;;5072672;28;20558;-74
2022/11/17 07:31:28;;;;;;;2.35;0.95;;;10.70;99.90;;;;;;5074618;28;20028;-75
2022/11/17 07:33:54;;;;;;;2.30;0.55;;;10.70;99.90;;;;;;5073937;28;20029;-73
2022/11/17 07:36:20;;;;;;;2.30;1.10;;;10.70;99.90;;;;;;5074778;28;20017;-75
2022/11/17 07:38:46;;;;;;;2.63;0.70;;;10.60;99.90;;;;;;5074773;28;20478;-74
2022/11/17 07:41:13;;;;;;;2.40;0.73;;;10.60;99.90;;;;;;5074555;28;20020;-75
2022/11/17 07:43:38;;;;;;;5.40;1.15;;;10.60;99.90;;;;;;5075642;28;20032;-74
2022/11/17 07:46:06;;;;;;;4.32;1.13;;;10.60;99.90;;;;;;5075519;28;20028;-74
2022/11/17 07:48:31;;;;;;;3.78;1.08;;;10.60;99.90;;;;;;5074574;28;20103;-75
2022/11/17 07:50:58;;;;;;;4.28;1.33;;;10.60;99.90;;;;;;5074712;28;20107;-75
2022/11/17 07:53:24;;;;;;;2.53;0.88;;;10.60;99.90;;;;;;5074211;28;20036;-75
2022/11/17 07:55:49;;;;;;;4.00;1.10;;;10.60;99.90;;;;;;5072567;28;20384;-74
2022/11/17 07:58:15;;;;;;;2.88;1.17;;;10.60;99.90;;;;;;5070777;28;20047;-75
2022/11/17 08:00:40;;;;;;;3.72;1.00;;;10.60;99.90;;;;;;5071896;28;20028;-75
2022/11/17 08:03:06;;;;;;;2.33;1.15;;;10.50;99.90;;;;;;5072874;28;20044;-73
2022/11/17 08:05:37;;;;;;;4.75;1.00;;;10.60;99.90;;;;;;5074009;28;20094;-74
2022/11/17 08:08:04;;;;;;;2.33;1.30;;;10.60;99.90;;;;;;5075754;28;20492;-75
2022/11/17 08:10:30;;;;;;;5.30;1.05;;;10.60;99.90;;;;;;5092428;28;20020;-73
2022/11/17 08:12:57;;;;;;;2.47;1.02;;;10.60;99.90;;;;;;5092044;28;20024;-73
2022/11/17 08:15:23;;;;;;;2.58;0.85;;;10.60;99.90;;;;;;5091800;28;20024;-73
2022/11/17 08:17:53;;;;;;;4.90;1.30;;;10.00;99.90;;;;;;5092844;28;20074;-73
2022/11/17 08:20:19;;;;;;;3.35;1.00;;;10.60;99.90;;;;;;5083934;28;20051;-75
2022/11/17 08:22:45;;;;;;;6.03;1.27;;;10.60;99.90;;;;;;5070582;28;20037;-73
2022/11/17 08:25:12;;;;;;;5.05;0.80;;;10.70;99.90;;;;;;5058865;28;20028;-73
2022/11/17 08:27:38;;;;;;;5.38;1.17;;;10.70;99.90;;;;;;5089340;28;20024;-72
2022/11/17 08:30:06;;;;;;;3.50;1.10;;;10.80;99.90;;;;;;5088370;28;20032;-74
2022/11/17 08:32:32;;;;;;;1.65;1.10;;;10.70;99.90;;;;;;5073111;28;20025;-74
2022/11/17 08:34:57;;;;;;;6.93;1.40;;;10.70;99.90;;;;;;5070553;28;20121;-72
2022/11/17 08:37:24;;;;;;;5.90;1.05;;;10.70;99.90;;;;;;5071001;28;20047;-73
2022/11/17 08:39:50;;;;;;;3.97;1.38;;;10.80;99.90;;;;;;5079856;28;20040;-74
2022/11/17 08:42:15;;;;;;;4.45;1.20;;;10.70;99.90;;;;;;5080035;28;20035;-73
2022/11/17 08:44:42;;;;;;;3.45;1.20;;;10.80;99.90;;;;;;5077564;28;20040;-75
2022/11/17 08:47:08;;;;;;;5.95;1.05;;;10.80;99.90;;;;;;5077581;28;20482;-74
2022/11/17 08:49:33;;;;;;;5.55;0.80;;;10.80;99.90;;;;;;5077585;28;20068;-75
2022/11/17 08:51:59;;;;;;;3.90;1.00;;;10.80;99.90;;;;;;5062626;28;20469;-74
2022/11/17 08:54:24;;;;;;;6.15;1.05;;;10.90;99.90;;;;;;5071572;28;20020;-72
2022/11/17 08:56:55;;;;;;;2.67;1.13;;;10.80;99.90;;;;;;5061776;28;20033;-73
2022/11/17 08:59:20;;;;;;;4.60;0.93;;;10.90;99.90;;;;;;5072894;28;20024;-74
2022/11/17 09:01:46;;;;;;;2.92;0.90;;;10.90;99.90;;;;;;5073506;28;20032;-75
2022/11/17 09:04:11;;;;;;;4.82;1.15;;;10.90;99.90;;;;;;5073856;28;20039;-75
2022/11/17 09:06:37;;;;;;;4.88;1.30;;;10.90;99.90;;;;;;5072775;28;20028;-74
2022/11/17 09:09:02;;;;;;;1.25;0.80;;;10.90;99.90;;;;;;5074040;28;20504;-74
2022/11/17 09:11:28;;;;;;;2.33;0.90;;;10.90;99.90;;;;;;5075114;28;20029;-76
2022/11/17 09:13:54;;;;;;;3.90;0.88;;;10.80;99.90;;;;;;5064219;28;20054;-75
2022/11/17 09:16:19;;;;;;;5.00;0.95;;;10.90;99.90;;;;;;5080391;28;20063;-75
2022/11/17 09:18:52;;;;;;;8.98;1.15;;;10.80;99.90;;;;;;5080029;28;20076;-74
2022/11/17 09:21:17;;;;;;;6.43;0.85;;;11.40;99.90;;;;;;5079440;28;20229;-75
2022/11/17 09:23:43;;;;;;;4.63;1.23;;;10.80;99.90;;;;;;5071894;28;20059;-74
2022/11/17 09:26:11;;;;;;;4.32;0.90;;;10.80;99.90;;;;;;5074662;28;20032;-74
2022/11/17 09:28:37;;;;;;;6.38;1.08;;;10.80;99.90;;;;;;5076015;28;20032;-73
2022/11/17 09:31:11;;;;;;;3.75;1.17;;;10.80;99.90;;;;;;5071664;28;20571;-75
2022/11/17 09:33:36;;;;;;;2.53;1.10;;;10.80;99.90;;;;;;5069358;28;20041;-73
2022/11/17 09:36:03;;;;;;;7.53;1.20;;;10.80;99.90;;;;;;5069613;28;20241;-73
2022/11/17 09:38:29;;;;;;;2.22;0.73;;;10.80;99.90;;;;;;5069279;28;20029;-74
2022/11/17 09:40:57;;;;;;;4.43;0.98;;;10.70;99.90;;;;;;5069632;28;20067;-72
2022/11/17 09:43:30;;;;;;;2.50;1.45;;;10.80;99.90;;;;;;5070468;28;20393;-74
2022/11/17 09:46:11;;;;;;;2.92;1.13;;;10.80;99.90;;;;;;5071678;28;20074;-72
2022/11/17 09:48:50;;;;;;;3.03;1.08;;;10.80;99.90;;;;;;5056865;28;20037;-74
2022/11/17 09:51:20;;;;;;;3.20;1.10;;;10.90;99.90;;;;;;5073902;28;20376;-75
2022/11/17 09:53:52;;;;;;;2.30;0.90;;;10.90;99.90;;;;;;5072596;28;20388;-74
2022/11/17 09:56:18;;;;;;;3.10;0.98;;;11.00;99.90;;;;;;5059816;28;20378;-73
2022/11/17 09:59:00;;;;;;;3.28;1.10;;;10.90;99.90;;;;;;5072478;28;20037;-73
2022/11/17 10:01:27;;;;;;;4.32;1.35;;;10.90;99.90;;;;;;5068926;28;20040;-73
2022/11/17 10:03:55;;;;;;;3.63;1.30;;;11.40;99.90;;;;;;5072032;28;20556;-75
2022/11/17 10:06:24;;;;;;;4.28;1.10;;;10.90;99.90;;;;;;5072850;28;20070;-74
2022/11/17 10:09:39;;;;;;;4.40;1.30;;;10.90;99.90;;;;;;5071388;28;20025;-73
2022/11/17 10:12:18;;;;;;;4.20;1.38;;;10.90;99.90;;;;;;5009892;28;20071;-73
2022/11/17 10:14:45;;;;;;;3.38;1.30;;;10.90;99.90;;;;;;5009862;28;20034;-73
2022/11/17 10:17:12;;;;;;;1.98;1.25;;;10.90;99.90;;;;;;5039950;28;20040;-75
2022/11/17 10:19:38;;;;;;;1.85;1.10;;;10.90;99.90;;;;;;5072026;28;20070;-74
2022/11/17 10:22:04;;;;;;;4.45;1.13;;;10.80;99.90;;;;;;5069320;28;20058;-73
2022/11/17 10:24:42;;;;;;;5.57;1.17;;;10.90;99.90;;;;;;5071468;28;20066;-76
2022/11/17 10:27:31;;;;;;;4.30;1.45;;;10.80;99.90;;;;;;5072977;28;20092;-74
2022/11/17 10:30:02;;;;;;;3.25;1.10;;;10.80;99.90;;;;;;5071732;28;20024;-75
2022/11/17 10:32:31;;;;;;;9.55;1.77;;;10.80;99.90;;;;;;5072300;28;20052;-74
2022/11/17 10:35:16;;;;;;;5.22;1.40;;;10.80;99.90;;;;;;5072066;28;20044;-74
2022/11/17 10:37:52;;;;;;;7.30;1.40;;;10.80;99.90;;;;;;5068456;28;20021;-75
2022/11/17 10:40:32;;;;;;;6.45;1.60;;;10.80;99.90;;;;;;5072796;28;20043;-74
2022/11/17 10:43:14;;;;;;;6.10;1.42;;;10.80;99.90;;;;;;5062241;28;20025;-76
2022/11/17 10:45:51;;;;;;;6.28;1.33;;;10.80;99.90;;;;;;5071063;28;20086;-75
2022/11/17 10:48:28;;;;;;;9.48;1.40;;;10.80;99.90;;;;;;5072859;28;20031;-76
2022/11/17 10:50:55;;;;;;;6.15;2.03;;;10.80;99.90;;;;;;5070598;28;20020;-75
2022/11/17 10:53:33;;;;;;;11.25;2.17;;;10.80;99.90;;;;;;5072424;28;20040;-75
2022/11/17 10:56:05;;;;;;;8.43;1.58;;;10.80;99.90;;;;;;5058512;28;20029;-74
2022/11/17 10:58:37;;;;;;;5.75;1.50;;;10.80;99.90;;;;;;5071711;28;20107;-74
2022/11/17 11:01:02;;;;;;;4.03;1.08;;;10.80;99.90;;;;;;5071598;28;20410;-76
2022/11/17 11:03:34;;;;;;;3.28;1.00;;;10.90;99.90;;;;;;5071652;28;20076;-75
2022/11/17 11:06:23;;;;;;;6.18;1.38;;;10.90;99.90;;;;;;5071263;28;20016;-74
2022/11/17 11:08:57;;;;;;;6.32;1.17;;;10.80;99.90;;;;;;5038368;28;20025;-74
2022/11/17 11:11:42;;;;;;;10.63;1.45;;;10.80;99.90;;;;;;5066820;28;20044;-74
2022/11/17 11:14:16;;;;;;;5.97;1.40;;;10.80;99.90;;;;;;5072065;28;20025;-73
2022/11/17 11:16:45;;;;;;;5.32;1.20;;;10.80;99.90;;;;;;5071546;28;20031;-75
2022/11/17 11:19:14;;;;;;;3.60;1.30;;;10.80;99.90;;;;;;5071752;28;20098;-74
2022/11/17 11:22:01;;;;;;;2.90;0.98;;;10.80;99.90;;;;;;5068205;28;20032;-75
2022/11/17 11:24:51;;;;;;;5.90;1.33;;;10.80;99.90;;;;;;5071533;28;20060;-74
2022/11/17 11:28:07;;;;;;;2.85;1.05;;;10.90;99.90;;;;;;5072302;28;20425;-74
2022/11/17 11:30:41;;;;;;;6.20;1.90;;;11.50;99.90;;;;;;5039038;28;20106;-74
2022/11/17 11:33:28;;;;;;;4.70;1.27;;;10.90;99.90;;;;;;5070658;28;20020;-73
2022/11/17 11:36:28;;;;;;;3.08;1.10;;;10.90;99.90;;;;;;5091204;28;20468;-74
2022/11/17 11:39:05;;;;;;;7.47;1.25;;;11.00;99.90;;;;;;5091760;28;20032;-74
2022/11/17 11:41:56;;;;;;;3.08;1.10;;;11.00;99.90;;;;;;5092652;28;20098;-74
2022/11/17 11:44:28;;;;;;;5.20;1.50;;;11.00;99.90;;;;;;5054552;28;20043;-73
2022/11/17 11:47:12;;;;;;;5.57;1.25;;;11.00;99.90;;;;;;5092954;28;20509;-74
2022/11/17 11:49:55;;;;;;;4.85;1.48;;;10.90;99.90;;;;;;5070394;28;20024;-74
2022/11/17 11:52:26;;;;;;;6.40;1.48;;;11.00;99.90;;;;;;5091743;28;20037;-73
2022/11/17 11:55:02;;;;;;;7.00;1.80;;;11.00;99.90;;;;;;5080899;28;20020;-74
2022/11/17 11:57:45;;;;;;;2.58;1.35;;;11.00;99.90;;;;;;5068644;28;20124;-74
2022/11/17 12:00:16;;;;;;;8.20;1.20;;;11.10;99.90;;;;;;5075888;28;20020;-73
2022/11/17 12:03:29;;;;;;;6.65;1.20;;;11.10;99.90;;;;;;5059475;28;20033;-72
2022/11/17 12:06:38;;;;;;;8.07;1.00;;;11.10;99.90;;;;;;5010700;28;20050;-73
2022/11/17 12:09:12;;;;;;;4.90;1.25;;;11.10;99.90;;;;;;5008393;28;20116;-73
2022/11/17 12:14:27;;;;;;;4.90;1.42;;;11.10;99.90;;;;;;5056754;28;20097;-73
2022/11/17 12:17:13;;;;;;;3.10;1.00;;;11.00;99.90;;;;;;5056736;28;20025;-73
2022/11/17 12:19:53;;;;;;;6.38;1.30;;;11.10;99.90;;;;;;5070653;28;20028;-74
2022/11/17 12:22:33;;;;;;;2.90;1.33;;;11.00;99.90;;;;;;5076263;28;20061;-73
2022/11/17 12:25:20;;;;;;;12.60;1.67;;;11.10;99.90;;;;;;5090660;28;20032;-74
2022/11/17 12:27:51;;;;;;;2.03;0.88;;;11.00;99.90;;;;;;5075588;28;20029;-74
2022/11/17 12:30:32;;;;;;;7.15;1.67;;;11.00;99.90;;;;;;5076926;28;20024;-74
2022/11/17 12:33:07;;;;;;;3.92;1.40;;;11.00;99.90;;;;;;5075701;28;20074;-74
2022/11/17 12:35:35;;;;;;;6.70;1.30;;;11.00;99.90;;;;;;5077293;28;20500;-74
2022/11/17 12:38:16;;;;;;;2.67;0.98;;;11.00;99.90;;;;;;5075604;28;20035;-75
2022/11/17 12:40:43;;;;;;;4.70;1.00;;;10.90;99.90;;;;;;5081059;28;20064;-75
2022/11/17 12:43:14;;;;;;;5.28;1.60;;;11.00;99.90;;;;;;5074797;28;20037;-74
2022/11/17 12:45:52;;;;;;;2.30;1.00;;;10.90;99.90;;;;;;5077912;28;20021;-73
2022/11/17 12:48:25;;;;;;;5.25;1.10;;;10.90;99.90;;;;;;5076655;28;20028;-75
2022/11/17 12:50:56;;;;;;;2.85;1.10;;;10.80;99.90;;;;;;5076601;28;20090;-75
2022/11/17 12:53:30;;;;;;;5.40;1.10;;;10.90;99.90;;;;;;5076036;28;20035;-74
2022/11/17 12:56:17;;;;;;;4.97;1.45;;;11.00;99.90;;;;;;5061183;28;20124;-74
2022/11/17 12:59:18;;;;;;;6.07;1.23;;;11.00;99.90;;;;;;5073167;28;20025;-73
2022/11/17 13:01:51;;;;;;;5.55;0.93;;;11.00;99.90;;;;;;5073934;28;20072;-73
2022/11/17 13:04:23;;;;;;;3.47;1.20;;;11.00;99.90;;;;;;5073542;28;20020;-73
2022/11/17 13:07:14;;;;;;;4.43;1.10;;;11.10;99.90;;;;;;5060010;28;20020;-72
2022/11/17 13:09:40;;;;;;;2.83;1.15;;;11.10;99.90;;;;;;5066166;28;20037;-74
2022/11/17 13:12:10;;;;;;;4.57;1.00;;;11.10;99.90;;;;;;5055149;28;20020;-73
2022/11/17 13:14:57;;;;;;;3.55;1.02;;;11.10;99.90;;;;;;5079776;28;20106;-74
2022/11/17 13:17:27;;;;;;;6.68;1.23;;;11.10;99.90;;;;;;5074304;28;20024;-74
2022/11/17 13:20:23;;;;;;;2.67;1.02;;;11.00;99.90;;;;;;5073022;28;20020;-69
2022/11/17 13:23:21;;;;;;;7.65;1.30;;;11.00;99.90;;;;;;5073804;28;20028;-75
2022/11/17 13:25:47;;;;;;;4.57;1.30;;;11.00;99.90;;;;;;5072515;28;20064;-74
2022/11/17 13:28:26;;;;;;;4.75;0.95;;;11.10;99.90;;;;;;5070957;28;20039;-72
2022/11/17 13:30:51;;;;;;;3.30;0.95;;;11.10;99.90;;;;;;5078760;28;20078;-75
2022/11/17 13:33:21;;;;;;;4.70;1.10;;;11.10;99.90;;;;;;5090149;28;20499;-75
2022/11/17 13:35:47;;;;;;;4.57;1.10;;;11.10;99.90;;;;;;5084906;28;20072;-74
2022/11/17 13:38:23;;;;;;;4.85;0.93;;;11.20;99.90;;;;;;5074412;28;20055;-76